Frederick, SD

11:16 AM CDT on August 31, 2016 (GMT -0500)
Willow Creek Lake | | Change Station

Elev 1411 ft 45.72 °N, 98.61 °W | Updated 3 minutes ago

Clear
Clear
67.1 °F
Feels Like 67.1 °F
N
6.0
Wind Variable Wind from South
Gusts 8.0 mph

Today
High -- | Low -- °F
--% Chance of Precip.
Yesterday
High -- | Low -- °F
Precip. -- in
Pressure 30.23 in
Visibility 10.0 miles
Clouds Clear
Dew Point 62 °F
Humidity 84%
Rainfall 0.02 in
Snow Depth Not available.
6:54 AM 8:12 PM
Waning Crescent, 1% visible
METAR KABR 311553Z AUTO 15006KT 10SM CLR 21/15 A3025 RMK AO2 SLP237 T02110150
Pressure 30.23 in
Visibility 10.0 miles
Clouds Clear
Dew Point 62 °F
Humidity 84%
Rainfall 0.02 in
Snow Depth Not available.
6:54 AM 8:12 PM
Waning Crescent, 1% visible
METAR KABR 311553Z AUTO 15006KT 10SM CLR 21/15 A3025 RMK AO2 SLP237 T02110150

10-Day Weather Forecast

Almanac

Astronomy

Aug. 31, 2016 Rise Set
Actual Time
Civil Twilight
Nautical Twilight
Astronomical Twilight
Moon
Length of Visible Light
Length of Day
Tomorrow will be .
, % of the Moon is Illuminated

Today's Extremes

State Highs State Lows

Community

WunderPhotos

Upload Photos

1,936,105 photos uploaded!

WunderBlog® & News

Nearby

Air Quality

  Air Quality AQ Index Pollutant
Not available.

Snow Depth

Station Depth Elevation

Earthquake Activity

City Distance Mag. Time & Date
Minimum magnitude displayed is 2.5.

Coastal Water Temperatures

Place Temperature

Stations

Nearby Weather Stations

Station Location Temp. Windchill Dew Point Humidity Wind Precip. Elev Updated Type
                   

Watches & Warnings

There are currently no watches in effect.